Time;durP1;ratioP1;P1;durP2;ratioP2;P2;SDS_P1;SDS_P2;PMS_P1;PMS_P2;Temp;Humidity;BMP_temperature;BMP_pressure;BME280_temperature;BME280_humidity;BME280_pressure;Samples;Min_cycle;Max_cycle;Signal;HPM_P1;HPM_P2
2023/03/31 00:02:12;;;;;;;4.15;2.30;;;333.20;2329.60;;;;;;5034210;28;20030;-83
2023/03/31 00:04:45;;;;;;;6.13;2.28;;;333.20;2329.60;;;;;;5051489;28;20083;-85
2023/03/31 00:07:15;;;;;;;6.82;2.10;;;333.20;2329.60;;;;;;5035613;28;20022;-85
2023/03/31 00:09:44;;;;;;;5.60;2.40;;;333.20;2329.60;;;;;;5051355;28;20065;-86
2023/03/31 00:12:12;;;;;;;4.88;2.83;;;333.20;2329.60;;;;;;5033525;28;20034;-82
2023/03/31 00:14:38;;;;;;;4.65;2.47;;;333.30;2329.60;;;;;;5034277;28;20025;-83
2023/03/31 00:17:04;;;;;;;7.45;2.10;;;333.30;2329.60;;;;;;5034304;28;20029;-84
2023/03/31 00:19:32;;;;;;;4.30;2.50;;;333.30;2329.60;;;;;;5034350;28;20025;-79
2023/03/31 00:22:00;;;;;;;7.85;2.70;;;333.40;2329.60;;;;;;5034164;28;20025;-81
2023/03/31 00:24:33;;;;;;;4.68;2.40;;;333.30;2329.60;;;;;;5034188;28;20025;-81
2023/03/31 00:27:04;;;;;;;6.78;2.20;;;333.40;2329.60;;;;;;5034160;28;20032;-81
2023/03/31 00:29:32;;;;;;;11.70;4.38;;;333.40;2329.60;;;;;;5033916;28;20034;-83
2023/03/31 00:31:58;;;;;;;7.32;3.10;;;333.40;2329.60;;;;;;5034623;28;20045;-82
2023/03/31 00:34:25;;;;;;;8.60;3.90;;;333.40;2329.60;;;;;;5035873;28;20032;-84
2023/03/31 00:36:55;;;;;;;13.00;7.05;;;333.40;2329.60;;;;;;5033715;28;20032;-80
2023/03/31 00:39:22;;;;;;;20.88;9.88;;;333.50;2329.60;;;;;;5033940;28;20036;-80
2023/03/31 00:41:48;;;;;;;19.80;8.30;;;333.40;2329.60;;;;;;5049904;28;20036;-80
2023/03/31 00:44:23;;;;;;;15.40;7.30;;;333.40;2329.60;;;;;;5033934;28;20025;-80
2023/03/31 00:46:51;;;;;;;11.52;6.43;;;333.40;2329.60;;;;;;5050444;28;20556;-81
2023/03/31 00:49:43;;;;;;;12.82;6.13;;;333.40;2329.60;;;;;;5034555;28;20036;-80
2023/03/31 00:52:23;;;;;;;9.48;6.22;;;333.40;2329.60;;;;;;5050202;28;20026;-80
2023/03/31 00:54:54;;;;;;;9.85;5.45;;;333.40;2329.60;;;;;;5033558;28;20117;-80
2023/03/31 00:57:21;;;;;;;13.43;5.97;;;333.40;2329.60;;;;;;5034542;28;20037;-80
2023/03/31 00:59:50;;;;;;;16.13;6.45;;;333.40;2329.60;;;;;;5033219;28;20029;-82
2023/03/31 01:02:19;;;;;;;11.52;6.30;;;333.40;2329.60;;;;;;5033762;28;20060;-80
2023/03/31 01:04:53;;;;;;;9.30;5.13;;;333.50;2329.60;;;;;;5049658;28;20432;-77
2023/03/31 01:07:37;;;;;;;7.78;4.07;;;333.40;2329.60;;;;;;5032975;28;20029;-81
2023/03/31 01:10:05;;;;;;;10.55;4.20;;;333.50;2329.60;;;;;;5033187;28;20025;-81
2023/03/31 01:12:35;;;;;;;7.70;3.75;;;333.40;2329.60;;;;;;5030799;28;20031;-81
2023/03/31 01:15:03;;;;;;;9.15;3.83;;;333.40;2329.60;;;;;;5012307;28;20032;-81
2023/03/31 01:17:29;;;;;;;10.30;4.50;;;333.40;2329.60;;;;;;5012204;28;20037;-81
2023/03/31 01:20:13;;;;;;;7.38;4.15;;;333.40;2329.60;;;;;;5014323;28;20521;-80
2023/03/31 01:23:06;;;;;;;8.25;3.13;;;333.40;2329.60;;;;;;5014166;28;20030;-83
2023/03/31 01:25:50;;;;;;;10.20;3.15;;;333.30;2329.60;;;;;;5012975;28;20030;-82
2023/03/31 01:28:56;;;;;;;7.47;3.13;;;333.20;2329.60;;;;;;5012744;28;20034;-82
2023/03/31 01:31:30;;;;;;;5.65;3.00;;;333.20;2329.60;;;;;;5012745;28;20044;-79
2023/03/31 01:34:23;;;;;;;6.72;2.83;;;333.20;2329.60;;;;;;5035951;28;20021;-79
2023/03/31 01:37:26;;;;;;;6.43;2.50;;;333.10;2329.60;;;;;;5036138;28;20074;-82
2023/03/31 01:40:25;;;;;;;4.30;2.35;;;333.10;2329.60;;;;;;5035739;28;20368;-81
2023/03/31 01:43:11;;;;;;;6.90;3.17;;;333.00;2329.60;;;;;;5053883;28;20033;-82
2023/03/31 01:45:55;;;;;;;5.75;3.67;;;332.90;2329.60;;;;;;5036053;28;20123;-80
2023/03/31 01:48:42;;;;;;;7.38;3.67;;;332.90;2329.60;;;;;;5053878;28;20029;-83
2023/03/31 01:51:42;;;;;;;5.85;2.63;;;332.80;2329.60;;;;;;5053813;28;20029;-82
2023/03/31 01:54:19;;;;;;;5.50;2.45;;;332.80;2329.60;;;;;;5036109;28;20029;-84
2023/03/31 01:56:57;;;;;;;5.95;2.35;;;308.10;2304.00;;;;;;5036234;28;20116;-86
2023/03/31 01:59:27;;;;;;;3.92;2.33;;;;;;;;;;5035835;28;20029;-84
2023/03/31 02:02:07;;;;;;;9.95;2.63;;;307.90;2304.00;;;;;;5036032;28;20044;-84
2023/03/31 02:04:37;;;;;;;5.18;2.55;;;307.90;2304.00;;;;;;5035979;28;20102;-85
2023/03/31 02:07:10;;;;;;;6.40;2.10;;;307.90;2304.00;;;;;;5035742;28;20036;-82
2023/03/31 02:09:40;;;;;;;4.63;1.90;;;308.00;2304.00;;;;;;5036074;28;20430;-84
2023/03/31 02:12:09;;;;;;;6.63;2.20;;;308.00;2304.00;;;;;;5035827;28;20483;-85
2023/03/31 02:14:38;;;;;;;10.63;2.88;;;308.00;2304.00;;;;;;5035591;28;20029;-84
2023/03/31 02:17:07;;;;;;;5.93;3.22;;;308.10;2304.00;;;;;;5053383;28;20453;-81
2023/03/31 02:19:38;;;;;;;9.27;5.53;;;308.10;2304.00;;;;;;5035663;28;20087;-83
2023/03/31 02:22:07;;;;;;;8.43;4.85;;;308.10;2304.00;;;;;;5053648;28;20510;-83
2023/03/31 02:24:35;;;;;;;17.33;7.32;;;308.10;2304.00;;;;;;5035679;28;20497;-81
2023/03/31 02:27:13;;;;;;;14.13;7.88;;;307.90;2304.00;;;;;;5035443;28;20021;-84
2023/03/31 02:29:39;;;;;;;12.38;6.97;;;307.90;2304.00;;;;;;5053366;28;20548;-85
2023/03/31 02:32:21;;;;;;;15.75;7.43;;;308.00;2304.00;;;;;;5053327;28;20080;-83
2023/03/31 02:34:47;;;;;;;14.23;7.07;;;307.90;2304.00;;;;;;5036823;28;20021;-84
2023/03/31 02:37:14;;;;;;;12.82;7.15;;;;;;;;;;5039655;28;20029;-83
2023/03/31 02:39:41;;;;;;;14.27;7.95;;;;;;;;;;5039425;28;20032;-83
2023/03/31 02:42:08;;;;;;;9.85;6.45;;;307.70;2304.00;;;;;;5039477;28;20041;-84
2023/03/31 02:44:37;;;;;;;16.05;8.25;;;307.70;2304.00;;;;;;5039493;28;20035;-84
2023/03/31 02:47:09;;;;;;;22.70;12.63;;;307.60;2304.00;;;;;;5039271;28;20032;-85
2023/03/31 02:49:39;;;;;;;19.95;11.90;;;307.80;2304.00;;;;;;5038490;28;20381;-85
2023/03/31 02:52:23;;;;;;;20.50;10.73;;;307.70;2304.00;;;;;;5038503;28;20036;-86
2023/03/31 02:55:16;;;;;;;21.30;10.05;;;307.70;2304.00;;;;;;5037778;28;20029;-83
2023/03/31 02:57:51;;;;;;;17.20;9.02;;;307.60;2304.00;;;;;;5057342;28;20031;-85
2023/03/31 03:00:17;;;;;;;18.95;9.90;;;;;;;;;;5056976;28;20078;-84
2023/03/31 03:02:51;;;;;;;20.23;9.50;;;;;;;;;;5056385;28;20025;-87
2023/03/31 03:05:23;;;;;;;16.08;9.13;;;307.30;2304.00;;;;;;5039421;28;20025;-84
2023/03/31 03:08:06;;;;;;;17.40;8.00;;;307.40;2304.00;;;;;;5039027;28;20457;-82
2023/03/31 03:10:55;;;;;;;13.10;6.70;;;;;;;;;;5045150;28;20039;-82
2023/03/31 03:13:25;;;;;;;12.85;6.75;;;;;;;;;;5069536;28;20037;-81
2023/03/31 03:16:24;;;;;;;12.35;7.28;;;307.40;2304.00;;;;;;5050640;28;20054;-81
2023/03/31 03:19:04;;;;;;;15.30;9.13;;;;;;;;;;5027689;28;20029;-83
2023/03/31 03:21:31;;;;;;;21.60;10.55;;;;;;;;;;5039008;28;20021;-80
2023/03/31 03:23:58;;;;;;;19.52;9.68;;;307.40;2304.00;;;;;;5038654;28;20025;-84
2023/03/31 03:26:26;;;;;;;21.40;9.85;;;307.60;2304.00;;;;;;5056333;28;20384;-83
2023/03/31 03:28:53;;;;;;;38.45;15.38;;;307.60;2304.00;;;;;;5038624;28;20475;-82
2023/03/31 03:31:22;;;;;;;26.92;11.18;;;307.60;2304.00;;;;;;5056256;28;20472;-82
2023/03/31 03:33:49;;;;;;;26.90;11.07;;;307.70;2304.00;;;;;;5038499;28;20025;-82
2023/03/31 03:36:16;;;;;;;31.90;12.63;;;307.70;2304.00;;;;;;5055843;28;20419;-84
2023/03/31 03:38:42;;;;;;;17.75;8.25;;;307.80;2304.00;;;;;;5037936;28;20022;-82
2023/03/31 03:41:08;;;;;;;20.73;10.32;;;307.80;2304.00;;;;;;5056086;28;20029;-83
2023/03/31 03:43:34;;;;;;;21.20;12.85;;;307.90;2304.00;;;;;;5038305;28;20031;-82
2023/03/31 03:46:00;;;;;;;21.67;12.85;;;307.80;2304.00;;;;;;5055024;28;20031;-83
2023/03/31 03:48:25;;;;;;;19.15;11.88;;;307.80;2304.00;;;;;;5038081;28;20029;-82
2023/03/31 03:50:53;;;;;;;55.28;32.70;;;307.70;2304.00;;;;;;5037932;28;20445;-80
2023/03/31 03:53:19;;;;;;;53.97;33.58;;;307.70;2304.00;;;;;;5038118;28;20025;-82
2023/03/31 03:55:47;;;;;;;80.55;47.15;;;307.60;2304.00;;;;;;5055870;28;20456;-83
2023/03/31 03:58:13;;;;;;;62.95;40.60;;;307.60;2304.00;;;;;;5037763;28;20029;-84
2023/03/31 04:00:39;;;;;;;74.95;46.33;;;307.60;2304.00;;;;;;5055649;28;20028;-81
2023/03/31 04:03:05;;;;;;;49.67;32.78;;;307.70;2304.00;;;;;;5037885;28;20146;-82
2023/03/31 04:05:30;;;;;;;27.10;18.02;;;307.70;2304.00;;;;;;5037558;28;20368;-83
2023/03/31 04:07:56;;;;;;;17.50;7.85;;;307.70;2304.00;;;;;;5055404;28;20025;-83
2023/03/31 04:10:22;;;;;;;19.30;10.40;;;307.60;2304.00;;;;;;5037791;28;20068;-86
2023/03/31 04:12:47;;;;;;;27.73;15.30;;;307.50;2304.00;;;;;;5037004;28;20524;-83
2023/03/31 04:15:13;;;;;;;47.95;26.75;;;307.60;2304.00;;;;;;5055568;28;20025;-81
2023/03/31 04:17:39;;;;;;;39.55;21.88;;;307.60;2304.00;;;;;;5055398;28;20036;-82
2023/03/31 04:20:08;;;;;;;38.78;21.20;;;307.60;2304.00;;;;;;5037254;28;20029;-78
2023/03/31 04:22:39;;;;;;;31.75;18.35;;;307.60;2304.00;;;;;;5055583;28;20458;-80
2023/03/31 04:25:13;;;;;;;26.80;16.20;;;307.50;2304.00;;;;;;5037446;28;20021;-83
2023/03/31 04:27:45;;;;;;;23.60;12.38;;;307.50;2304.00;;;;;;5036854;28;20025;-84
2023/03/31 04:30:21;;;;;;;17.85;10.20;;;307.50;2304.00;;;;;;5055632;28;20025;-83
2023/03/31 04:32:53;;;;;;;19.08;9.40;;;307.40;2304.00;;;;;;5036983;28;20045;-79
2023/03/31 04:35:20;;;;;;;20.03;11.60;;;307.50;2304.00;;;;;;5037526;28;20178;-83
2023/03/31 04:37:51;;;;;;;22.20;11.55;;;307.40;2304.00;;;;;;5037697;28;20270;-83
2023/03/31 04:40:17;;;;;;;33.00;17.85;;;307.30;2304.00;;;;;;5036891;28;20461;-80
2023/03/31 04:42:44;;;;;;;29.35;15.73;;;307.30;2304.00;;;;;;5055360;28;20079;-83
2023/03/31 04:45:11;;;;;;;28.45;14.90;;;307.20;2304.00;;;;;;5055490;28;20033;-81
2023/03/31 04:47:37;;;;;;;25.80;12.50;;;307.30;2304.00;;;;;;5054705;28;20017;-80
2023/03/31 04:50:04;;;;;;;19.92;10.50;;;307.30;2304.00;;;;;;5053464;28;20024;-81
2023/03/31 04:52:30;;;;;;;26.30;16.25;;;282.50;2278.40;;;;;;5054297;28;20053;-83
2023/03/31 04:54:55;;;;;;;28.25;15.90;;;307.30;2304.00;;;;;;5035827;28;20463;-82
2023/03/31 04:57:21;;;;;;;22.80;12.88;;;307.20;2304.00;;;;;;5036409;28;20032;-83
2023/03/31 04:59:47;;;;;;;15.27;7.60;;;307.20;2304.00;;;;;;5054487;28;20432;-82
2023/03/31 05:02:12;;;;;;;18.83;11.27;;;282.50;2278.40;;;;;;5036563;28;20431;-82
2023/03/31 05:04:38;;;;;;;24.88;16.00;;;307.20;2304.00;;;;;;5036480;28;20059;-82
2023/03/31 05:07:04;;;;;;;29.80;17.52;;;307.20;2304.00;;;;;;5036892;28;20061;-82
2023/03/31 05:09:30;;;;;;;31.00;20.35;;;307.30;2304.00;;;;;;5054569;28;20029;-82
2023/03/31 05:11:56;;;;;;;42.72;26.42;;;307.30;2304.00;;;;;;5036679;28;20029;-80
2023/03/31 05:14:22;;;;;;;37.03;23.65;;;307.50;2304.00;;;;;;5036651;28;20060;-81
2023/03/31 05:16:48;;;;;;;39.92;23.90;;;307.40;2304.00;;;;;;5036428;28;20049;-84
2023/03/31 05:19:13;;;;;;;29.70;21.27;;;307.50;2304.00;;;;;;5036833;28;20467;-80
2023/03/31 05:21:39;;;;;;;30.55;17.55;;;307.50;2304.00;;;;;;5054089;28;20029;-80
2023/03/31 05:24:05;;;;;;;33.28;17.33;;;307.50;2304.00;;;;;;5036381;28;20067;-83
2023/03/31 05:26:31;;;;;;;25.73;14.52;;;307.30;2304.00;;;;;;5054259;28;20049;-82
2023/03/31 05:28:56;;;;;;;20.15;12.10;;;307.20;2304.00;;;;;;5036369;28;20175;-83
2023/03/31 05:31:22;;;;;;;32.08;18.58;;;307.30;2304.00;;;;;;5036327;28;20525;-81
2023/03/31 05:33:48;;;;;;;28.75;17.80;;;307.40;2304.00;;;;;;5036541;28;20031;-82
2023/03/31 05:36:16;;;;;;;30.58;17.73;;;307.50;2304.00;;;;;;5035998;28;20021;-83
2023/03/31 05:38:42;;;;;;;51.47;26.08;;;307.60;2304.00;;;;;;5036065;28;20024;-82
2023/03/31 05:41:09;;;;;;;40.97;24.20;;;307.70;2304.00;;;;;;5036542;28;20066;-77
2023/03/31 05:43:36;;;;;;;33.50;24.05;;;307.80;2304.00;;;;;;5035601;28;20028;-78
2023/03/31 05:46:03;;;;;;;31.23;22.30;;;307.80;2304.00;;;;;;5036229;28;20119;-78
2023/03/31 05:48:28;;;;;;;40.20;24.63;;;307.80;2304.00;;;;;;5053667;28;20082;-81
2023/03/31 05:50:58;;;;;;;35.42;22.85;;;307.90;2304.00;;;;;;5035633;28;20033;-81
2023/03/31 05:53:25;;;;;;;32.83;18.40;;;307.90;2304.00;;;;;;5054413;28;20031;-81
2023/03/31 05:55:57;;;;;;;33.90;17.60;;;308.00;2304.00;;;;;;5038644;28;20531;-81
2023/03/31 05:58:23;;;;;;;26.13;16.38;;;308.10;2304.00;;;;;;5035410;28;20033;-82
2023/03/31 06:00:48;;;;;;;29.00;19.10;;;307.90;2304.00;;;;;;5053456;28;20036;-81
2023/03/31 06:03:14;;;;;;;28.75;18.42;;;307.80;2304.00;;;;;;5035008;28;20061;-80
2023/03/31 06:05:46;;;;;;;24.95;16.08;;;307.80;2304.00;;;;;;5035840;28;20449;-83
2023/03/31 06:08:12;;;;;;;23.02;11.15;;;307.90;2304.00;;;;;;5036199;28;20358;-82
2023/03/31 06:10:38;;;;;;;32.78;21.67;;;307.90;2304.00;;;;;;5038973;28;20036;-81
2023/03/31 06:13:04;;;;;;;25.02;16.55;;;307.90;2304.00;;;;;;5040050;28;20029;-82
2023/03/31 06:15:30;;;;;;;24.65;15.48;;;307.90;2304.00;;;;;;5040083;28;20380;-81
2023/03/31 06:17:56;;;;;;;27.73;15.20;;;307.90;2304.00;;;;;;5039535;28;20041;-82
2023/03/31 06:20:21;;;;;;;29.13;17.50;;;308.00;2304.00;;;;;;5039829;28;20036;-81
2023/03/31 06:22:47;;;;;;;27.10;15.98;;;308.10;2304.00;;;;;;5039957;28;20032;-83
2023/03/31 06:25:13;;;;;;;29.08;17.27;;;332.80;2329.60;;;;;;5057279;28;20032;-82
2023/03/31 06:27:39;;;;;;;30.55;16.63;;;332.80;2329.60;;;;;;5038215;28;20114;-77
2023/03/31 06:30:06;;;;;;;25.08;17.02;;;332.90;2329.60;;;;;;5056968;28;20060;-83
2023/03/31 06:32:31;;;;;;;33.00;18.98;;;332.90;2329.60;;;;;;5037857;28;20094;-80
2023/03/31 06:34:57;;;;;;;34.78;19.05;;;333.00;2329.60;;;;;;5057288;28;20534;-82
2023/03/31 06:37:23;;;;;;;26.10;15.95;;;333.10;2329.60;;;;;;5057358;28;20025;-79
2023/03/31 06:39:49;;;;;;;27.25;17.88;;;333.20;2329.60;;;;;;5056948;28;20029;-82
2023/03/31 06:42:15;;;;;;;33.88;19.35;;;333.30;2329.60;;;;;;5039090;28;20616;-82
2023/03/31 06:44:40;;;;;;;29.50;19.27;;;333.50;2329.60;;;;;;5039417;28;20028;-81
2023/03/31 06:47:06;;;;;;;27.00;17.05;;;333.50;2329.60;;;;;;5056974;28;20033;-81
2023/03/31 06:49:32;;;;;;;28.50;16.33;;;333.60;2329.60;;;;;;5039305;28;20361;-82
2023/03/31 06:51:57;;;;;;;24.23;15.32;;;333.70;2329.60;;;;;;5056047;28;20354;-80
2023/03/31 06:54:23;;;;;;;28.95;15.23;;;358.40;2329.60;;;;;;5055520;28;20066;-79
2023/03/31 06:56:49;;;;;;;21.85;14.20;;;358.40;2329.60;;;;;;5038862;28;20051;-78
2023/03/31 06:59:15;;;;;;;27.23;15.00;;;358.50;2329.60;;;;;;5055636;28;20035;-79
2023/03/31 07:01:41;;;;;;;24.13;15.43;;;358.70;2329.60;;;;;;5038838;28;20118;-83
2023/03/31 07:04:07;;;;;;;27.08;16.30;;;358.80;2329.60;;;;;;5064582;28;20025;-78
2023/03/31 07:06:33;;;;;;;26.77;14.48;;;358.80;2329.60;;;;;;5069114;28;20025;-78
2023/03/31 07:08:59;;;;;;;26.83;18.38;;;358.90;2329.60;;;;;;5067504;28;20461;-80
2023/03/31 07:11:25;;;;;;;26.75;17.50;;;359.00;2329.60;;;;;;5055742;28;20035;-79
2023/03/31 07:13:51;;;;;;;31.85;17.75;;;359.10;2329.60;;;;;;5055358;28;20111;-81
2023/03/31 07:16:16;;;;;;;32.92;16.83;;;359.20;2329.60;;;;;;5039003;28;20113;-81
2023/03/31 07:18:42;;;;;;;23.13;15.65;;;384.00;2329.60;;;;;;5038836;28;20378;-80
2023/03/31 07:21:08;;;;;;;20.95;10.75;;;384.10;2329.60;;;;;;5054398;28;20504;-78
2023/03/31 07:23:34;;;;;;;14.40;9.57;;;384.30;2329.60;;;;;;5056090;28;20028;-80
2023/03/31 07:26:01;;;;;;;14.00;6.60;;;384.50;2329.60;;;;;;5038590;28;20090;-79
2023/03/31 07:28:30;;;;;;;15.60;7.25;;;384.40;2329.60;;;;;;5038258;28;20459;-81
2023/03/31 07:30:55;;;;;;;11.80;7.90;;;384.30;2329.60;;;;;;5038382;28;20116;-82
2023/03/31 07:33:21;;;;;;;14.32;7.45;;;384.50;2329.60;;;;;;5037646;28;20511;-79
2023/03/31 07:35:47;;;;;;;13.73;8.40;;;384.70;2329.60;;;;;;5037949;28;20519;-78
2023/03/31 07:38:13;;;;;;;15.18;8.23;;;384.70;2329.60;;;;;;5038262;28;20333;-79
2023/03/31 07:40:40;;;;;;;13.00;8.32;;;384.70;2329.60;;;;;;5038429;28;20029;-82
2023/03/31 07:43:06;;;;;;;13.77;7.60;;;384.80;2329.60;;;;;;5037890;28;20035;-80
2023/03/31 07:45:34;;;;;;;14.45;8.23;;;384.90;2304.00;;;;;;5038165;28;20091;-80
2023/03/31 07:48:00;;;;;;;12.93;8.43;;;384.90;2304.00;;;;;;5056015;28;20032;-78
2023/03/31 07:50:26;;;;;;;12.80;8.18;;;384.90;2252.80;;;;;;5055504;28;20033;-81
2023/03/31 07:52:51;;;;;;;10.70;6.30;;;384.90;2278.40;;;;;;5038188;28;20029;-81
2023/03/31 07:55:18;;;;;;;10.27;6.05;;;384.90;2329.60;;;;;;5038050;28;20028;-81
2023/03/31 07:57:45;;;;;;;12.43;5.75;;;409.60;2355.20;;;;;;5037001;28;20031;-83
2023/03/31 08:00:12;;;;;;;14.90;7.10;;;409.60;2355.20;;;;;;5055016;28;20024;-78
2023/03/31 08:02:40;;;;;;;12.50;7.15;;;409.70;2355.20;;;;;;5036833;28;20029;-82
2023/03/31 08:05:06;;;;;;;12.73;7.38;;;409.70;2355.20;;;;;;5037915;28;20397;-81
2023/03/31 08:07:38;;;;;;;10.32;5.68;;;409.70;2355.20;;;;;;5038064;28;20025;-81
2023/03/31 08:10:05;;;;;;;12.15;6.13;;;409.70;2355.20;;;;;;5037298;28;20033;-82
2023/03/31 08:12:31;;;;;;;13.68;8.25;;;409.60;2355.20;;;;;;5036897;28;20105;-82
2023/03/31 08:14:57;;;;;;;16.65;8.15;;;409.70;2355.20;;;;;;5027336;28;20469;-82
2023/03/31 08:17:23;;;;;;;13.18;7.45;;;409.70;2355.20;;;;;;5024225;28;20028;-82
2023/03/31 08:19:50;;;;;;;14.40;7.85;;;409.70;2329.60;;;;;;5027191;28;20033;-83
2023/03/31 08:22:16;;;;;;;16.17;8.63;;;409.70;2304.00;;;;;;5051186;28;20119;-82
2023/03/31 08:24:42;;;;;;;14.52;9.38;;;409.80;2304.00;;;;;;5065503;28;20552;-83
2023/03/31 08:27:07;;;;;;;16.67;7.95;;;409.80;2278.40;;;;;;5036421;28;20040;-83
2023/03/31 08:29:33;;;;;;;14.48;6.75;;;409.80;2278.40;;;;;;5037270;28;20032;-84
2023/03/31 08:31:59;;;;;;;13.23;6.60;;;409.80;2304.00;;;;;;5054385;28;20485;-82
2023/03/31 08:34:26;;;;;;;13.70;7.45;;;409.90;2304.00;;;;;;5054922;28;20028;-84
2023/03/31 08:36:51;;;;;;;13.23;7.63;;;409.90;2304.00;;;;;;5039326;28;20025;-83
2023/03/31 08:39:17;;;;;;;15.15;7.65;;;410.00;2304.00;;;;;;5035070;28;20043;-82
2023/03/31 08:42:00;;;;;;;13.73;7.97;;;409.90;2304.00;;;;;;5049713;28;20381;-82
2023/03/31 08:45:07;;;;;;;14.77;10.07;;;409.90;2278.40;;;;;;5037059;28;20072;-83
2023/03/31 08:47:35;;;;;;;13.70;8.52;;;410.00;2278.40;;;;;;5033603;28;20075;-83
2023/03/31 08:50:14;;;;;;;15.55;10.35;;;410.00;2329.60;;;;;;5021158;28;20029;-83
2023/03/31 08:53:05;;;;;;;13.60;7.45;;;410.00;2329.60;;;;;;5016983;28;20029;-82
2023/03/31 08:55:51;;;;;;;14.95;9.25;;;409.90;2304.00;;;;;;5028402;28;20131;-82
2023/03/31 08:58:39;;;;;;;12.65;7.32;;;409.80;2304.00;;;;;;5037130;28;20025;-81
2023/03/31 09:01:42;;;;;;;12.20;6.90;;;409.70;2278.40;;;;;;5054105;28;20512;-82
2023/03/31 09:04:23;;;;;;;;;;;409.70;2355.20;;;;;;5054745;28;20082;-82
2023/03/31 09:07:06;;;;;;;13.70;7.05;;;409.90;2329.60;;;;;;5037730;28;20333;-81
2023/03/31 09:09:38;;;;;;;;;;;410.00;2304.00;;;;;;5030017;28;20037;-82
2023/03/31 09:12:38;;;;;;;14.05;7.72;;;410.20;2278.40;;;;;;5054921;28;19908;-83
2023/03/31 09:15:31;;;;;;;15.55;7.05;;;410.30;2252.80;;;;;;4983020;28;20503;-83
2023/03/31 09:18:22;;;;;;;10.63;6.78;;;410.40;2278.40;;;;;;5048508;28;20037;-83
2023/03/31 09:20:51;;;;;;;11.30;6.68;;;410.50;2252.80;;;;;;5030741;28;20094;-82
2023/03/31 09:23:37;;;;;;;9.95;6.22;;;410.50;2227.20;;;;;;5036871;28;20037;-82
2023/03/31 09:26:03;;;;;;;11.35;5.35;;;435.30;2252.80;;;;;;5054229;28;20024;-83
2023/03/31 09:28:38;;;;;;;10.38;7.07;;;435.40;2150.40;;;;;;5037664;28;20449;-83
2023/03/31 09:31:08;;;;;;;15.80;7.68;;;;;;;;;;5048260;28;20031;-81
2023/03/31 09:33:41;;;;;;;10.75;5.20;;;435.90;2124.80;;;;;;5016973;28;20048;-81
2023/03/31 09:36:18;;;;;;;8.02;4.43;;;436.00;2048.00;;;;;;5055922;28;20084;-83
2023/03/31 09:38:45;;;;;;;7.05;3.70;;;436.00;2022.40;;;;;;5043600;28;20013;-84
2023/03/31 09:41:15;;;;;;;7.78;3.50;;;436.10;1996.80;;;;;;5045017;28;20128;-83
2023/03/31 09:43:42;;;;;;;9.90;3.00;;;436.10;1971.20;;;;;;5035488;28;20532;-84
2023/03/31 09:46:32;;;;;;;18.42;4.82;;;460.80;2022.40;;;;;;5044503;28;20071;-83
2023/03/31 09:49:13;;;;;;;10.55;6.45;;;460.90;1996.80;;;;;;5049845;28;20025;-83
2023/03/31 09:51:43;;;;;;;11.80;6.45;;;461.10;2073.60;;;;;;5035800;28;20452;-84
2023/03/31 09:54:21;;;;;;;14.20;9.07;;;460.90;2150.40;;;;;;5032413;28;20022;-83
2023/03/31 09:56:54;;;;;;;13.75;8.70;;;460.90;2150.40;;;;;;5024658;28;20035;-83
2023/03/31 09:59:22;;;;;;;18.73;8.43;;;461.00;2124.80;;;;;;5034351;28;20030;-83
2023/03/31 10:01:55;;;;;;;13.40;7.13;;;461.20;2150.40;;;;;;5034623;28;20029;-83
2023/03/31 10:04:28;;;;;;;14.45;8.50;;;461.40;2124.80;;;;;;5038585;28;20029;-84
2023/03/31 10:06:54;;;;;;;11.80;6.75;;;461.70;2124.80;;;;;;5026674;28;20033;-83
2023/03/31 10:09:26;;;;;;;12.70;7.45;;;487.00;2099.20;;;;;;5031217;28;20033;-84
2023/03/31 10:12:15;;;;;;;11.90;6.23;;;486.70;2073.60;;;;;;5022418;28;20416;-83
2023/03/31 10:14:47;;;;;;;11.65;6.60;;;486.80;2048.00;;;;;;5025248;28;20496;-82
2023/03/31 10:17:15;;;;;;;11.18;5.32;;;487.00;2022.40;;;;;;5039090;28;20127;-84
2023/03/31 10:19:51;;;;;;;9.80;5.00;;;487.10;1996.80;;;;;;5020978;28;20513;-83
2023/03/31 10:22:20;;;;;;;10.55;5.13;;;486.90;1971.20;;;;;;5020681;28;20037;-85
2023/03/31 10:24:47;;;;;;;10.90;5.38;;;487.20;1971.20;;;;;;5035414;28;20388;-83
2023/03/31 10:27:28;;;;;;;13.75;7.25;;;512.00;1945.60;;;;;;5041211;28;20369;-83
2023/03/31 10:30:03;;;;;;;7.88;4.38;;;512.30;1945.60;;;;;;5049504;28;20036;-83
2023/03/31 10:32:41;;;;;;;10.05;5.43;;;512.50;1894.40;;;;;;5021319;28;20207;-81
2023/03/31 10:35:13;;;;;;;8.75;4.88;;;512.60;1894.40;;;;;;5024800;28;20067;-82
2023/03/31 10:37:39;;;;;;;9.97;5.77;;;512.60;1894.40;;;;;;5031216;28;20056;-82
2023/03/31 10:40:14;;;;;;;15.18;8.20;;;512.70;1996.80;;;;;;5019167;28;20392;-81
2023/03/31 10:42:45;;;;;;;18.15;9.40;;;512.70;1894.40;;;;;;5045328;28;20025;-83
2023/03/31 10:45:20;;;;;;;8.27;5.80;;;512.80;1894.40;;;;;;5015561;28;20028;-84
2023/03/31 10:47:51;;;;;;;9.45;4.47;;;512.60;1868.80;;;;;;5016016;28;20028;-82
2023/03/31 10:50:17;;;;;;;6.20;3.95;;;512.40;1894.40;;;;;;5052058;28;20029;-82
2023/03/31 10:52:46;;;;;;;9.73;4.63;;;512.10;1894.40;;;;;;5037583;28;20479;-83
2023/03/31 10:55:16;;;;;;;12.50;5.57;;;512.10;1920.00;;;;;;5035527;28;20033;-80
2023/03/31 10:57:45;;;;;;;10.07;4.38;;;512.60;1868.80;;;;;;5056481;28;20017;-82
2023/03/31 11:00:26;;;;;;;8.50;5.20;;;512.80;1868.80;;;;;;5057992;28;20112;-82
2023/03/31 11:03:27;;;;;;;9.00;5.10;;;537.90;1868.80;;;;;;5023089;28;20380;-82
2023/03/31 11:06:25;;;;;;;7.70;4.45;;;538.00;1843.20;;;;;;5038322;28;20029;-81
2023/03/31 11:09:02;;;;;;;6.47;4.03;;;537.70;1868.80;;;;;;5023639;28;20021;-81
2023/03/31 11:11:41;;;;;;;10.20;4.20;;;538.20;1868.80;;;;;;5057181;28;20021;-80
2023/03/31 11:14:20;;;;;;;6.05;3.10;;;563.20;1868.80;;;;;;5024735;28;20515;-79
2023/03/31 11:17:02;;;;;;;7.85;3.58;;;538.40;1843.20;;;;;;5035621;28;20110;-77
2023/03/31 11:19:52;;;;;;;6.88;3.58;;;563.60;1817.60;;;;;;5054215;28;20033;-79
2023/03/31 11:22:51;;;;;;;7.25;3.50;;;563.20;1817.60;;;;;;5023199;28;20034;-80
2023/03/31 11:25:34;;;;;;;8.55;3.25;;;563.40;1843.20;;;;;;5031333;28;20036;-79
2023/03/31 11:28:21;;;;;;;9.02;3.30;;;563.90;1766.40;;;;;;5033837;28;20057;-80
2023/03/31 11:30:51;;;;;;;9.43;3.65;;;589.00;1766.40;;;;;;5054453;28;20033;-81
2023/03/31 11:33:30;;;;;;;10.40;3.65;;;;;;;;;;5025474;28;20517;-80
2023/03/31 11:36:27;;;;;;;10.77;4.32;;;589.30;1740.80;;;;;;5029494;28;20104;-80
2023/03/31 11:39:06;;;;;;;7.63;3.83;;;;;;;;;;5004650;28;20021;-80
2023/03/31 11:41:34;;;;;;;11.80;4.65;;;;;;;;;;5041480;28;20482;-80
2023/03/31 11:44:04;;;;;;;9.07;3.22;;;;;;;;;;5046298;28;20469;-83
2023/03/31 11:46:37;;;;;;;13.80;5.50;;;;;;;;;;5036506;28;20465;-82
2023/03/31 11:49:06;;;;;;;7.45;3.88;;;;;;;;;;5045349;28;20028;-79
2023/03/31 11:51:38;;;;;;;7.72;4.40;;;;;;;;;;5039378;28;20084;-80
2023/03/31 11:54:10;;;;;;;13.68;4.88;;;;;;;;;;5044789;28;20469;-80
2023/03/31 11:56:38;;;;;;;7.65;4.28;;;;;;;;;;5034047;28;20378;-81
2023/03/31 11:59:06;;;;;;;7.93;3.67;;;;;;;;;;5043612;28;20022;-81
2023/03/31 12:02:11;;;;;;;10.18;5.57;;;;;;;;;;5017228;28;20026;-80
2023/03/31 12:04:39;;;;;;;11.43;5.22;;;;;;;;;;4937302;29;20483;-79
2023/03/31 12:07:21;;;;;;;12.13;4.38;;;615.10;1638.40;;;;;;4937851;29;20065;-80
2023/03/31 12:10:05;;;;;;;11.82;4.68;;;615.20;1612.80;;;;;;4979186;28;20049;-81
2023/03/31 12:12:58;;;;;;;7.57;3.97;;;640.20;1638.40;;;;;;4997393;28;20026;-81
2023/03/31 12:15:28;;;;;;;9.80;4.03;;;614.90;1612.80;;;;;;5025033;28;20536;-81
2023/03/31 12:18:24;;;;;;;8.90;4.88;;;615.10;1638.40;;;;;;5027262;28;20127;-81
2023/03/31 12:20:54;;;;;;;7.00;3.10;;;615.20;1612.80;;;;;;4986091;28;20053;-80
2023/03/31 12:23:30;;;;;;;7.30;4.07;;;640.10;1638.40;;;;;;5010670;28;20529;-82
2023/03/31 12:26:22;;;;;;;9.63;4.43;;;640.40;1587.20;;;;;;5029618;28;20029;-83
2023/03/31 12:29:00;;;;;;;7.93;3.88;;;640.70;1587.20;;;;;;5013484;28;20029;-81
2023/03/31 12:31:27;;;;;;;9.05;4.82;;;640.00;1587.20;;;;;;5023468;28;20054;-82
2023/03/31 12:34:00;;;;;;;9.80;5.50;;;614.80;1612.80;;;;;;5013986;28;20399;-82
2023/03/31 12:36:59;;;;;;;17.42;11.65;;;640.00;1638.40;;;;;;4996390;28;20449;-81
2023/03/31 12:39:34;;;;;;;10.63;7.68;;;640.40;1612.80;;;;;;5004055;28;20037;-81
2023/03/31 12:42:34;;;;;;;8.13;5.18;;;640.60;1587.20;;;;;;5013670;28;20034;-83